sensor_id;sensor_type;location;lat;lon;timestamp;temperature;humidity
29939;DHT22;16799;50.844;5.304;2023-08-06T00:00:19;15.30;99.90
29939;DHT22;16799;50.844;5.304;2023-08-06T00:02:45;15.30;99.90
29939;DHT22;16799;50.844;5.304;2023-08-06T00:05:11;15.40;99.90
29939;DHT22;16799;50.844;5.304;2023-08-06T00:07:36;15.50;99.90
29939;DHT22;16799;50.844;5.304;2023-08-06T00:10:02;15.30;99.90
29939;DHT22;16799;50.844;5.304;2023-08-06T00:12:28;15.30;99.90
29939;DHT22;16799;50.844;5.304;2023-08-06T00:14:54;15.20;99.90
29939;DHT22;16799;50.844;5.304;2023-08-06T00:17:19;15.20;99.90
29939;DHT22;16799;50.844;5.304;2023-08-06T00:19:45;15.00;99.90
29939;DHT22;16799;50.844;5.304;2023-08-06T00:22:11;15.20;99.90
29939;DHT22;16799;50.844;5.304;2023-08-06T00:24:36;15.20;99.90
29939;DHT22;16799;50.844;5.304;2023-08-06T00:27:03;15.20;99.90
29939;DHT22;16799;50.844;5.304;2023-08-06T00:29:29;15.30;99.90
29939;DHT22;16799;50.844;5.304;2023-08-06T00:31:54;15.50;99.90
29939;DHT22;16799;50.844;5.304;2023-08-06T00:34:20;15.60;99.90
29939;DHT22;16799;50.844;5.304;2023-08-06T00:36:46;15.60;99.90
29939;DHT22;16799;50.844;5.304;2023-08-06T00:39:11;15.50;99.90
29939;DHT22;16799;50.844;5.304;2023-08-06T00:41:37;15.30;99.90
29939;DHT22;16799;50.844;5.304;2023-08-06T00:44:03;15.50;99.90
29939;DHT22;16799;50.844;5.304;2023-08-06T00:46:29;15.40;99.90
29939;DHT22;16799;50.844;5.304;2023-08-06T00:48:55;15.40;99.90
29939;DHT22;16799;50.844;5.304;2023-08-06T00:51:22;15.40;99.90
29939;DHT22;16799;50.844;5.304;2023-08-06T00:53:49;15.30;99.90
29939;DHT22;16799;50.844;5.304;2023-08-06T00:56:15;15.40;99.90
29939;DHT22;16799;50.844;5.304;2023-08-06T00:58:41;15.40;99.90
29939;DHT22;16799;50.844;5.304;2023-08-06T01:01:07;15.40;99.90
29939;DHT22;16799;50.844;5.304;2023-08-06T01:03:33;15.10;99.90
29939;DHT22;16799;50.844;5.304;2023-08-06T01:05:59;15.20;99.90
29939;DHT22;16799;50.844;5.304;2023-08-06T01:11:37;15.40;99.90
29939;DHT22;16799;50.844;5.304;2023-08-06T01:14:30;15.50;99.90
29939;DHT22;16799;50.844;5.304;2023-08-06T01:16:58;15.40;99.90
29939;DHT22;16799;50.844;5.304;2023-08-06T01:19:24;15.40;99.90
29939;DHT22;16799;50.844;5.304;2023-08-06T01:21:50;15.50;99.90
29939;DHT22;16799;50.844;5.304;2023-08-06T01:24:15;15.40;99.90
29939;DHT22;16799;50.844;5.304;2023-08-06T01:29:30;15.40;99.90
29939;DHT22;16799;50.844;5.304;2023-08-06T01:31:57;15.30;99.90
29939;DHT22;16799;50.844;5.304;2023-08-06T01:34:26;15.40;99.90
29939;DHT22;16799;50.844;5.304;2023-08-06T01:36:53;15.20;99.90
29939;DHT22;16799;50.844;5.304;2023-08-06T01:39:19;15.20;99.90
29939;DHT22;16799;50.844;5.304;2023-08-06T01:41:48;15.20;99.90
29939;DHT22;16799;50.844;5.304;2023-08-06T01:44:14;15.30;99.90
29939;DHT22;16799;50.844;5.304;2023-08-06T01:46:40;15.10;99.90
29939;DHT22;16799;50.844;5.304;2023-08-06T01:49:06;15.20;99.90
29939;DHT22;16799;50.844;5.304;2023-08-06T01:51:31;15.10;99.90
29939;DHT22;16799;50.844;5.304;2023-08-06T01:53:57;15.20;99.90
29939;DHT22;16799;50.844;5.304;2023-08-06T01:56:23;15.30;99.90
29939;DHT22;16799;50.844;5.304;2023-08-06T01:58:48;15.10;99.90
29939;DHT22;16799;50.844;5.304;2023-08-06T02:01:14;15.20;99.90
29939;DHT22;16799;50.844;5.304;2023-08-06T02:03:39;15.30;99.90
29939;DHT22;16799;50.844;5.304;2023-08-06T02:06:05;15.30;99.90
29939;DHT22;16799;50.844;5.304;2023-08-06T02:08:31;15.30;99.90
29939;DHT22;16799;50.844;5.304;2023-08-06T02:10:57;15.40;99.90
29939;DHT22;16799;50.844;5.304;2023-08-06T02:13:23;15.50;99.90
29939;DHT22;16799;50.844;5.304;2023-08-06T02:15:49;15.60;99.90
29939;DHT22;16799;50.844;5.304;2023-08-06T02:18:15;15.60;99.90
29939;DHT22;16799;50.844;5.304;2023-08-06T02:20:42;15.60;99.90
29939;DHT22;16799;50.844;5.304;2023-08-06T02:23:07;15.50;99.90
29939;DHT22;16799;50.844;5.304;2023-08-06T02:25:33;15.50;99.90
29939;DHT22;16799;50.844;5.304;2023-08-06T02:27:59;15.50;99.90
29939;DHT22;16799;50.844;5.304;2023-08-06T02:30:24;15.60;99.90
29939;DHT22;16799;50.844;5.304;2023-08-06T02:32:50;15.50;99.90
29939;DHT22;16799;50.844;5.304;2023-08-06T02:35:16;15.50;99.90
29939;DHT22;16799;50.844;5.304;2023-08-06T02:37:41;15.50;99.90
29939;DHT22;16799;50.844;5.304;2023-08-06T02:40:07;15.70;99.90
29939;DHT22;16799;50.844;5.304;2023-08-06T02:42:33;15.70;99.90
29939;DHT22;16799;50.844;5.304;2023-08-06T02:44:59;15.60;99.90
29939;DHT22;16799;50.844;5.304;2023-08-06T02:47:24;15.50;99.90
29939;DHT22;16799;50.844;5.304;2023-08-06T02:49:50;15.50;99.90
29939;DHT22;16799;50.844;5.304;2023-08-06T02:52:16;15.60;99.90
29939;DHT22;16799;50.844;5.304;2023-08-06T02:54:42;15.80;99.90
29939;DHT22;16799;50.844;5.304;2023-08-06T02:57:08;15.80;99.90
29939;DHT22;16799;50.844;5.304;2023-08-06T02:59:33;15.80;99.90
29939;DHT22;16799;50.844;5.304;2023-08-06T03:01:59;15.80;99.90
29939;DHT22;16799;50.844;5.304;2023-08-06T03:04:25;15.60;99.90
29939;DHT22;16799;50.844;5.304;2023-08-06T03:06:50;15.60;99.90
29939;DHT22;16799;50.844;5.304;2023-08-06T03:09:17;15.40;99.90
29939;DHT22;16799;50.844;5.304;2023-08-06T03:11:43;15.20;99.90
29939;DHT22;16799;50.844;5.304;2023-08-06T03:14:08;15.20;99.90
29939;DHT22;16799;50.844;5.304;2023-08-06T03:16:34;15.20;99.90
29939;DHT22;16799;50.844;5.304;2023-08-06T03:19:00;15.20;99.90
29939;DHT22;16799;50.844;5.304;2023-08-06T03:21:26;15.10;99.90
29939;DHT22;16799;50.844;5.304;2023-08-06T03:23:51;15.00;99.90
29939;DHT22;16799;50.844;5.304;2023-08-06T03:26:17;15.00;99.90
29939;DHT22;16799;50.844;5.304;2023-08-06T03:28:43;15.00;99.90
29939;DHT22;16799;50.844;5.304;2023-08-06T03:31:08;14.90;99.90
29939;DHT22;16799;50.844;5.304;2023-08-06T03:33:34;14.80;99.90
29939;DHT22;16799;50.844;5.304;2023-08-06T03:36:00;14.90;99.90
29939;DHT22;16799;50.844;5.304;2023-08-06T03:38:25;15.00;99.90
29939;DHT22;16799;50.844;5.304;2023-08-06T03:40:51;15.10;99.90
29939;DHT22;16799;50.844;5.304;2023-08-06T03:43:17;15.20;99.90
29939;DHT22;16799;50.844;5.304;2023-08-06T03:45:42;15.00;99.90
29939;DHT22;16799;50.844;5.304;2023-08-06T03:48:08;15.10;99.90
29939;DHT22;16799;50.844;5.304;2023-08-06T03:50:34;15.00;99.90
29939;DHT22;16799;50.844;5.304;2023-08-06T03:53:00;14.90;99.90
29939;DHT22;16799;50.844;5.304;2023-08-06T03:55:26;14.90;99.90
29939;DHT22;16799;50.844;5.304;2023-08-06T03:57:51;14.80;99.90
29939;DHT22;16799;50.844;5.304;2023-08-06T04:00:17;14.80;99.90
29939;DHT22;16799;50.844;5.304;2023-08-06T04:02:43;14.90;99.90
29939;DHT22;16799;50.844;5.304;2023-08-06T04:05:09;14.90;99.90
29939;DHT22;16799;50.844;5.304;2023-08-06T04:07:35;14.90;99.90
29939;DHT22;16799;50.844;5.304;2023-08-06T04:10:02;14.90;99.90
29939;DHT22;16799;50.844;5.304;2023-08-06T04:12:29;14.80;99.90
29939;DHT22;16799;50.844;5.304;2023-08-06T04:14:56;14.80;99.90
29939;DHT22;16799;50.844;5.304;2023-08-06T04:17:22;14.80;99.90
29939;DHT22;16799;50.844;5.304;2023-08-06T04:19:53;14.80;99.90
29939;DHT22;16799;50.844;5.304;2023-08-06T04:22:20;14.80;99.90
29939;DHT22;16799;50.844;5.304;2023-08-06T04:24:45;14.80;99.90
29939;DHT22;16799;50.844;5.304;2023-08-06T04:27:12;14.80;99.90
29939;DHT22;16799;50.844;5.304;2023-08-06T04:29:38;14.80;99.90
29939;DHT22;16799;50.844;5.304;2023-08-06T04:32:07;14.80;99.90
29939;DHT22;16799;50.844;5.304;2023-08-06T04:34:32;14.70;99.90
29939;DHT22;16799;50.844;5.304;2023-08-06T04:36:59;14.80;99.90
29939;DHT22;16799;50.844;5.304;2023-08-06T04:39:24;14.70;99.90
29939;DHT22;16799;50.844;5.304;2023-08-06T04:41:50;14.70;99.90
29939;DHT22;16799;50.844;5.304;2023-08-06T04:44:16;14.80;99.90
29939;DHT22;16799;50.844;5.304;2023-08-06T04:46:41;14.80;99.90
29939;DHT22;16799;50.844;5.304;2023-08-06T04:49:07;14.70;99.90
29939;DHT22;16799;50.844;5.304;2023-08-06T04:51:32;14.70;99.90
29939;DHT22;16799;50.844;5.304;2023-08-06T04:53:58;14.70;99.90
29939;DHT22;16799;50.844;5.304;2023-08-06T04:56:24;14.70;99.90
29939;DHT22;16799;50.844;5.304;2023-08-06T04:58:50;14.70;99.90
29939;DHT22;16799;50.844;5.304;2023-08-06T05:01:16;14.70;99.90
29939;DHT22;16799;50.844;5.304;2023-08-06T05:03:42;14.70;99.90
29939;DHT22;16799;50.844;5.304;2023-08-06T05:06:08;14.70;99.90
29939;DHT22;16799;50.844;5.304;2023-08-06T05:08:33;14.70;99.90
29939;DHT22;16799;50.844;5.304;2023-08-06T05:10:59;14.80;99.90
29939;DHT22;16799;50.844;5.304;2023-08-06T05:13:25;14.70;99.90
29939;DHT22;16799;50.844;5.304;2023-08-06T05:15:52;14.70;99.90
29939;DHT22;16799;50.844;5.304;2023-08-06T05:18:18;14.70;99.90
29939;DHT22;16799;50.844;5.304;2023-08-06T05:20:44;14.70;99.90
29939;DHT22;16799;50.844;5.304;2023-08-06T05:23:10;14.70;99.90
29939;DHT22;16799;50.844;5.304;2023-08-06T05:25:39;14.80;99.90
29939;DHT22;16799;50.844;5.304;2023-08-06T05:28:05;14.80;99.90
29939;DHT22;16799;50.844;5.304;2023-08-06T05:30:31;14.90;99.90
29939;DHT22;16799;50.844;5.304;2023-08-06T05:32:57;15.00;99.90
29939;DHT22;16799;50.844;5.304;2023-08-06T05:35:23;15.00;99.90
29939;DHT22;16799;50.844;5.304;2023-08-06T05:37:49;14.90;99.90
29939;DHT22;16799;50.844;5.304;2023-08-06T05:40:15;15.00;99.90
29939;DHT22;16799;50.844;5.304;2023-08-06T05:42:41;15.00;99.90
29939;DHT22;16799;50.844;5.304;2023-08-06T05:45:07;15.00;99.90
29939;DHT22;16799;50.844;5.304;2023-08-06T05:47:33;15.10;99.90
29939;DHT22;16799;50.844;5.304;2023-08-06T05:49:59;15.10;99.90
29939;DHT22;16799;50.844;5.304;2023-08-06T05:52:25;15.00;99.90
29939;DHT22;16799;50.844;5.304;2023-08-06T05:54:50;15.00;99.90
29939;DHT22;16799;50.844;5.304;2023-08-06T05:57:17;15.00;99.90
29939;DHT22;16799;50.844;5.304;2023-08-06T05:59:43;14.90;99.90
29939;DHT22;16799;50.844;5.304;2023-08-06T06:02:09;14.80;99.90
29939;DHT22;16799;50.844;5.304;2023-08-06T06:04:34;14.80;99.90
29939;DHT22;16799;50.844;5.304;2023-08-06T06:07:00;14.60;99.90
29939;DHT22;16799;50.844;5.304;2023-08-06T06:09:26;14.60;99.90
29939;DHT22;16799;50.844;5.304;2023-08-06T06:11:51;14.50;99.90
29939;DHT22;16799;50.844;5.304;2023-08-06T06:14:18;14.40;99.90
29939;DHT22;16799;50.844;5.304;2023-08-06T06:16:44;14.30;99.90
29939;DHT22;16799;50.844;5.304;2023-08-06T06:19:10;14.10;99.90
29939;DHT22;16799;50.844;5.304;2023-08-06T06:21:36;14.00;99.90
29939;DHT22;16799;50.844;5.304;2023-08-06T06:24:03;13.90;99.90
29939;DHT22;16799;50.844;5.304;2023-08-06T06:26:29;13.80;99.90
29939;DHT22;16799;50.844;5.304;2023-08-06T06:28:55;13.70;99.90
29939;DHT22;16799;50.844;5.304;2023-08-06T06:31:21;13.60;99.90
29939;DHT22;16799;50.844;5.304;2023-08-06T06:33:46;13.60;99.90
29939;DHT22;16799;50.844;5.304;2023-08-06T06:36:12;13.60;99.90
29939;DHT22;16799;50.844;5.304;2023-08-06T06:38:38;13.50;99.90
29939;DHT22;16799;50.844;5.304;2023-08-06T06:41:04;13.50;99.90
29939;DHT22;16799;50.844;5.304;2023-08-06T06:43:29;13.50;99.90
29939;DHT22;16799;50.844;5.304;2023-08-06T06:45:59;13.60;99.90
29939;DHT22;16799;50.844;5.304;2023-08-06T06:48:29;13.60;99.90
29939;DHT22;16799;50.844;5.304;2023-08-06T06:50:55;13.70;99.90
29939;DHT22;16799;50.844;5.304;2023-08-06T06:53:21;13.80;99.90
29939;DHT22;16799;50.844;5.304;2023-08-06T06:55:55;13.70;99.90
29939;DHT22;16799;50.844;5.304;2023-08-06T06:58:21;13.70;99.90
29939;DHT22;16799;50.844;5.304;2023-08-06T07:00:48;13.80;99.90
29939;DHT22;16799;50.844;5.304;2023-08-06T07:03:16;13.80;99.90
29939;DHT22;16799;50.844;5.304;2023-08-06T07:05:44;13.80;99.90
29939;DHT22;16799;50.844;5.304;2023-08-06T07:08:09;13.80;99.90
29939;DHT22;16799;50.844;5.304;2023-08-06T07:10:35;13.80;99.90
29939;DHT22;16799;50.844;5.304;2023-08-06T07:13:01;13.90;99.90
29939;DHT22;16799;50.844;5.304;2023-08-06T07:15:26;13.90;99.90
29939;DHT22;16799;50.844;5.304;2023-08-06T07:17:52;13.90;99.90
29939;DHT22;16799;50.844;5.304;2023-08-06T07:20:17;14.00;99.90
29939;DHT22;16799;50.844;5.304;2023-08-06T07:22:44;14.00;99.90
29939;DHT22;16799;50.844;5.304;2023-08-06T07:25:09;14.00;99.90
29939;DHT22;16799;50.844;5.304;2023-08-06T07:27:35;14.10;99.90
29939;DHT22;16799;50.844;5.304;2023-08-06T07:30:01;14.10;99.90
29939;DHT22;16799;50.844;5.304;2023-08-06T07:32:26;14.10;99.90
29939;DHT22;16799;50.844;5.304;2023-08-06T07:34:53;14.10;99.90
29939;DHT22;16799;50.844;5.304;2023-08-06T07:37:24;14.00;99.90
29939;DHT22;16799;50.844;5.304;2023-08-06T07:39:50;14.10;99.90
29939;DHT22;16799;50.844;5.304;2023-08-06T07:42:16;14.10;99.90
29939;DHT22;16799;50.844;5.304;2023-08-06T07:44:41;14.20;99.90
29939;DHT22;16799;50.844;5.304;2023-08-06T07:47:07;14.20;99.90
29939;DHT22;16799;50.844;5.304;2023-08-06T07:49:33;14.10;99.90
29939;DHT22;16799;50.844;5.304;2023-08-06T07:51:58;14.20;99.90
29939;DHT22;16799;50.844;5.304;2023-08-06T07:54:24;14.30;99.90
29939;DHT22;16799;50.844;5.304;2023-08-06T07:56:50;14.30;99.90
29939;DHT22;16799;50.844;5.304;2023-08-06T07:59:15;14.30;99.90
29939;DHT22;16799;50.844;5.304;2023-08-06T08:01:42;14.30;99.90
29939;DHT22;16799;50.844;5.304;2023-08-06T08:04:07;14.30;99.90
29939;DHT22;16799;50.844;5.304;2023-08-06T08:06:33;14.30;99.90
29939;DHT22;16799;50.844;5.304;2023-08-06T08:08:59;14.40;99.90
29939;DHT22;16799;50.844;5.304;2023-08-06T08:11:26;14.40;99.90
29939;DHT22;16799;50.844;5.304;2023-08-06T08:13:51;14.50;99.90
29939;DHT22;16799;50.844;5.304;2023-08-06T08:16:17;14.50;99.90
29939;DHT22;16799;50.844;5.304;2023-08-06T08:18:43;14.50;99.90
29939;DHT22;16799;50.844;5.304;2023-08-06T08:21:08;14.60;99.90
29939;DHT22;16799;50.844;5.304;2023-08-06T08:23:34;14.60;99.90
29939;DHT22;16799;50.844;5.304;2023-08-06T08:26:00;14.50;99.90
29939;DHT22;16799;50.844;5.304;2023-08-06T08:28:27;14.60;99.90
29939;DHT22;16799;50.844;5.304;2023-08-06T08:30:53;14.70;99.90
29939;DHT22;16799;50.844;5.304;2023-08-06T08:33:18;14.70;99.90
29939;DHT22;16799;50.844;5.304;2023-08-06T08:35:46;14.70;99.90
29939;DHT22;16799;50.844;5.304;2023-08-06T08:38:12;14.70;99.90
29939;DHT22;16799;50.844;5.304;2023-08-06T08:40:45;14.70;99.90
29939;DHT22;16799;50.844;5.304;2023-08-06T08:43:11;14.60;99.90
29939;DHT22;16799;50.844;5.304;2023-08-06T08:45:39;14.60;99.90
29939;DHT22;16799;50.844;5.304;2023-08-06T08:48:06;14.60;99.90
29939;DHT22;16799;50.844;5.304;2023-08-06T08:50:33;14.50;99.90
29939;DHT22;16799;50.844;5.304;2023-08-06T08:52:59;14.50;99.90
29939;DHT22;16799;50.844;5.304;2023-08-06T08:55:25;14.50;99.90
29939;DHT22;16799;50.844;5.304;2023-08-06T08:57:51;14.50;99.90
29939;DHT22;16799;50.844;5.304;2023-08-06T09:00:17;14.50;99.90
29939;DHT22;16799;50.844;5.304;2023-08-06T09:02:44;14.40;99.90
29939;DHT22;16799;50.844;5.304;2023-08-06T09:05:11;14.50;99.90
29939;DHT22;16799;50.844;5.304;2023-08-06T09:07:48;14.50;99.90
29939;DHT22;16799;50.844;5.304;2023-08-06T09:10:16;14.60;99.90
29939;DHT22;16799;50.844;5.304;2023-08-06T09:12:44;14.60;99.90
29939;DHT22;16799;50.844;5.304;2023-08-06T09:15:10;14.60;99.90
29939;DHT22;16799;50.844;5.304;2023-08-06T09:17:36;14.60;99.90
29939;DHT22;16799;50.844;5.304;2023-08-06T09:20:14;14.60;99.90
29939;DHT22;16799;50.844;5.304;2023-08-06T09:22:40;14.70;99.90
29939;DHT22;16799;50.844;5.304;2023-08-06T09:25:07;14.80;99.90
29939;DHT22;16799;50.844;5.304;2023-08-06T09:27:37;14.80;99.90
29939;DHT22;16799;50.844;5.304;2023-08-06T09:30:04;14.80;99.90
29939;DHT22;16799;50.844;5.304;2023-08-06T09:32:45;14.90;99.90
29939;DHT22;16799;50.844;5.304;2023-08-06T09:35:17;14.80;99.90
29939;DHT22;16799;50.844;5.304;2023-08-06T09:37:43;14.80;99.90
29939;DHT22;16799;50.844;5.304;2023-08-06T09:40:28;14.80;99.90
29939;DHT22;16799;50.844;5.304;2023-08-06T09:42:54;14.80;99.90
29939;DHT22;16799;50.844;5.304;2023-08-06T09:45:20;14.60;99.90
29939;DHT22;16799;50.844;5.304;2023-08-06T09:47:48;14.50;99.90
29939;DHT22;16799;50.844;5.304;2023-08-06T09:50:18;14.50;99.90
29939;DHT22;16799;50.844;5.304;2023-08-06T09:52:44;14.40;99.90
29939;DHT22;16799;50.844;5.304;2023-08-06T09:55:14;14.40;99.90
29939;DHT22;16799;50.844;5.304;2023-08-06T09:57:42;14.30;99.90
29939;DHT22;16799;50.844;5.304;2023-08-06T10:00:09;14.40;99.90
29939;DHT22;16799;50.844;5.304;2023-08-06T10:02:37;14.30;99.90
29939;DHT22;16799;50.844;5.304;2023-08-06T10:05:05;14.40;99.90
29939;DHT22;16799;50.844;5.304;2023-08-06T10:07:31;14.50;99.90
29939;DHT22;16799;50.844;5.304;2023-08-06T10:09:58;14.70;99.90
29939;DHT22;16799;50.844;5.304;2023-08-06T10:12:24;14.80;99.90
29939;DHT22;16799;50.844;5.304;2023-08-06T10:14:53;15.10;99.90
29939;DHT22;16799;50.844;5.304;2023-08-06T10:17:23;15.10;99.90
29939;DHT22;16799;50.844;5.304;2023-08-06T10:19:50;15.00;99.90
29939;DHT22;16799;50.844;5.304;2023-08-06T10:22:19;14.80;99.90
29939;DHT22;16799;50.844;5.304;2023-08-06T10:24:55;14.80;99.90
29939;DHT22;16799;50.844;5.304;2023-08-06T10:28:07;14.60;99.90
29939;DHT22;16799;50.844;5.304;2023-08-06T10:33:04;14.50;99.90
29939;DHT22;16799;50.844;5.304;2023-08-06T10:35:46;14.50;99.90
29939;DHT22;16799;50.844;5.304;2023-08-06T10:38:43;14.50;99.90
29939;DHT22;16799;50.844;5.304;2023-08-06T10:41:15;14.70;99.90
29939;DHT22;16799;50.844;5.304;2023-08-06T10:43:42;14.70;99.90
29939;DHT22;16799;50.844;5.304;2023-08-06T10:46:22;14.60;99.90
29939;DHT22;16799;50.844;5.304;2023-08-06T10:48:48;14.40;99.90
29939;DHT22;16799;50.844;5.304;2023-08-06T10:51:14;14.40;99.90
29939;DHT22;16799;50.844;5.304;2023-08-06T10:53:44;14.30;99.90
29939;DHT22;16799;50.844;5.304;2023-08-06T10:56:14;14.30;99.90
29939;DHT22;16799;50.844;5.304;2023-08-06T10:58:41;14.30;99.90
29939;DHT22;16799;50.844;5.304;2023-08-06T11:01:07;14.20;99.90
29939;DHT22;16799;50.844;5.304;2023-08-06T11:03:33;14.20;99.90
29939;DHT22;16799;50.844;5.304;2023-08-06T11:05:59;14.30;99.90
29939;DHT22;16799;50.844;5.304;2023-08-06T11:08:30;14.30;99.90
29939;DHT22;16799;50.844;5.304;2023-08-06T11:10:56;14.30;99.90
29939;DHT22;16799;50.844;5.304;2023-08-06T11:13:32;14.10;99.90
29939;DHT22;16799;50.844;5.304;2023-08-06T11:15:58;14.10;99.90
29939;DHT22;16799;50.844;5.304;2023-08-06T11:18:24;14.10;99.90
29939;DHT22;16799;50.844;5.304;2023-08-06T11:20:49;14.10;99.90
29939;DHT22;16799;50.844;5.304;2023-08-06T11:23:15;14.20;99.90
29939;DHT22;16799;50.844;5.304;2023-08-06T11:25:45;14.10;99.90
29939;DHT22;16799;50.844;5.304;2023-08-06T11:28:11;14.10;99.90
29939;DHT22;16799;50.844;5.304;2023-08-06T11:30:38;14.00;99.90
29939;DHT22;16799;50.844;5.304;2023-08-06T11:33:07;14.00;99.90
29939;DHT22;16799;50.844;5.304;2023-08-06T11:35:35;14.00;99.90
29939;DHT22;16799;50.844;5.304;2023-08-06T11:38:01;14.10;99.90
29939;DHT22;16799;50.844;5.304;2023-08-06T11:40:27;14.20;99.90
29939;DHT22;16799;50.844;5.304;2023-08-06T11:42:52;14.30;99.90
29939;DHT22;16799;50.844;5.304;2023-08-06T11:45:22;14.30;99.90
29939;DHT22;16799;50.844;5.304;2023-08-06T11:47:52;14.20;99.90
29939;DHT22;16799;50.844;5.304;2023-08-06T11:50:26;14.30;99.90
29939;DHT22;16799;50.844;5.304;2023-08-06T11:52:59;14.40;99.90
29939;DHT22;16799;50.844;5.304;2023-08-06T11:55:26;14.50;99.90
29939;DHT22;16799;50.844;5.304;2023-08-06T11:57:54;14.50;99.90
29939;DHT22;16799;50.844;5.304;2023-08-06T12:00:21;14.60;99.90
29939;DHT22;16799;50.844;5.304;2023-08-06T12:02:48;14.60;99.90
29939;DHT22;16799;50.844;5.304;2023-08-06T12:05:17;14.60;99.90
29939;DHT22;16799;50.844;5.304;2023-08-06T12:07:49;14.50;99.90
29939;DHT22;16799;50.844;5.304;2023-08-06T12:10:16;14.50;99.90
29939;DHT22;16799;50.844;5.304;2023-08-06T12:12:42;14.50;99.90
29939;DHT22;16799;50.844;5.304;2023-08-06T12:15:08;14.50;99.90
29939;DHT22;16799;50.844;5.304;2023-08-06T12:17:35;14.50;99.90
29939;DHT22;16799;50.844;5.304;2023-08-06T12:20:02;14.50;99.90
29939;DHT22;16799;50.844;5.304;2023-08-06T12:22:30;14.50;99.90
29939;DHT22;16799;50.844;5.304;2023-08-06T12:25:00;14.60;99.90
29939;DHT22;16799;50.844;5.304;2023-08-06T12:27:26;14.50;99.90
29939;DHT22;16799;50.844;5.304;2023-08-06T12:29:52;14.40;99.90
29939;DHT22;16799;50.844;5.304;2023-08-06T12:32:17;14.40;99.90
29939;DHT22;16799;50.844;5.304;2023-08-06T12:34:44;14.50;99.90
29939;DHT22;16799;50.844;5.304;2023-08-06T12:37:10;14.50;99.90
29939;DHT22;16799;50.844;5.304;2023-08-06T12:39:37;14.50;99.90
29939;DHT22;16799;50.844;5.304;2023-08-06T12:42:04;14.40;99.90
29939;DHT22;16799;50.844;5.304;2023-08-06T12:44:31;14.50;99.90
29939;DHT22;16799;50.844;5.304;2023-08-06T12:46:57;14.60;99.90
29939;DHT22;16799;50.844;5.304;2023-08-06T12:49:23;14.80;99.90
29939;DHT22;16799;50.844;5.304;2023-08-06T12:51:51;14.90;99.90
29939;DHT22;16799;50.844;5.304;2023-08-06T12:54:17;14.90;99.90
29939;DHT22;16799;50.844;5.304;2023-08-06T12:56:45;14.80;99.90
29939;DHT22;16799;50.844;5.304;2023-08-06T12:59:10;14.70;99.90
29939;DHT22;16799;50.844;5.304;2023-08-06T13:01:38;14.60;99.90
29939;DHT22;16799;50.844;5.304;2023-08-06T13:04:04;14.50;99.90
29939;DHT22;16799;50.844;5.304;2023-08-06T13:06:30;14.40;99.90
29939;DHT22;16799;50.844;5.304;2023-08-06T13:08:56;14.40;99.90
29939;DHT22;16799;50.844;5.304;2023-08-06T13:11:22;14.30;99.90
29939;DHT22;16799;50.844;5.304;2023-08-06T13:13:48;14.20;99.90
29939;DHT22;16799;50.844;5.304;2023-08-06T13:16:14;14.10;99.90
29939;DHT22;16799;50.844;5.304;2023-08-06T13:18:39;14.20;99.90
29939;DHT22;16799;50.844;5.304;2023-08-06T13:21:05;14.10;99.90
29939;DHT22;16799;50.844;5.304;2023-08-06T13:23:31;14.20;99.90
29939;DHT22;16799;50.844;5.304;2023-08-06T13:25:56;14.10;99.90
29939;DHT22;16799;50.844;5.304;2023-08-06T13:28:22;14.10;99.90
29939;DHT22;16799;50.844;5.304;2023-08-06T13:30:47;14.10;99.90
29939;DHT22;16799;50.844;5.304;2023-08-06T13:33:13;14.10;99.90
29939;DHT22;16799;50.844;5.304;2023-08-06T13:35:39;14.10;99.90
29939;DHT22;16799;50.844;5.304;2023-08-06T13:38:04;14.10;99.90
29939;DHT22;16799;50.844;5.304;2023-08-06T13:40:32;14.20;99.90
29939;DHT22;16799;50.844;5.304;2023-08-06T13:42:59;14.20;99.90
29939;DHT22;16799;50.844;5.304;2023-08-06T13:45:24;14.20;99.90
29939;DHT22;16799;50.844;5.304;2023-08-06T13:47:50;14.20;99.90
29939;DHT22;16799;50.844;5.304;2023-08-06T13:50:16;14.30;99.90
29939;DHT22;16799;50.844;5.304;2023-08-06T13:52:41;14.20;99.90
29939;DHT22;16799;50.844;5.304;2023-08-06T13:55:07;14.20;99.90
29939;DHT22;16799;50.844;5.304;2023-08-06T13:57:34;14.10;99.90
29939;DHT22;16799;50.844;5.304;2023-08-06T14:00:00;14.10;99.90
29939;DHT22;16799;50.844;5.304;2023-08-06T14:02:26;13.90;99.90
29939;DHT22;16799;50.844;5.304;2023-08-06T14:04:52;14.00;99.90
29939;DHT22;16799;50.844;5.304;2023-08-06T14:07:18;13.90;99.90
29939;DHT22;16799;50.844;5.304;2023-08-06T14:09:44;13.80;99.90
29939;DHT22;16799;50.844;5.304;2023-08-06T14:12:10;13.80;99.90
29939;DHT22;16799;50.844;5.304;2023-08-06T14:14:35;13.80;99.90
29939;DHT22;16799;50.844;5.304;2023-08-06T14:17:01;13.70;99.90
29939;DHT22;16799;50.844;5.304;2023-08-06T14:19:27;13.70;99.90
29939;DHT22;16799;50.844;5.304;2023-08-06T14:21:54;13.70;99.90
29939;DHT22;16799;50.844;5.304;2023-08-06T14:24:20;13.60;99.90
29939;DHT22;16799;50.844;5.304;2023-08-06T14:26:46;13.70;99.90
29939;DHT22;16799;50.844;5.304;2023-08-06T14:29:12;13.70;99.90
29939;DHT22;16799;50.844;5.304;2023-08-06T14:31:39;13.70;99.90
29939;DHT22;16799;50.844;5.304;2023-08-06T14:34:05;13.70;99.90
29939;DHT22;16799;50.844;5.304;2023-08-06T14:36:31;13.60;99.90
29939;DHT22;16799;50.844;5.304;2023-08-06T14:38:56;13.50;99.90
29939;DHT22;16799;50.844;5.304;2023-08-06T14:41:22;13.50;99.90
29939;DHT22;16799;50.844;5.304;2023-08-06T14:43:48;13.40;99.90
29939;DHT22;16799;50.844;5.304;2023-08-06T14:46:13;13.40;99.90
29939;DHT22;16799;50.844;5.304;2023-08-06T14:48:39;13.40;99.90
29939;DHT22;16799;50.844;5.304;2023-08-06T14:51:04;13.30;99.90
29939;DHT22;16799;50.844;5.304;2023-08-06T14:53:30;13.30;99.90
29939;DHT22;16799;50.844;5.304;2023-08-06T14:55:56;13.30;99.90
29939;DHT22;16799;50.844;5.304;2023-08-06T14:58:21;13.30;99.90
29939;DHT22;16799;50.844;5.304;2023-08-06T15:00:47;13.30;99.90
29939;DHT22;16799;50.844;5.304;2023-08-06T15:03:13;13.30;99.90
29939;DHT22;16799;50.844;5.304;2023-08-06T15:05:38;13.30;99.90
29939;DHT22;16799;50.844;5.304;2023-08-06T15:08:04;13.30;99.90
29939;DHT22;16799;50.844;5.304;2023-08-06T15:10:30;13.30;99.90
29939;DHT22;16799;50.844;5.304;2023-08-06T15:12:55;13.30;99.90
29939;DHT22;16799;50.844;5.304;2023-08-06T15:15:21;13.40;99.90
29939;DHT22;16799;50.844;5.304;2023-08-06T15:17:50;13.40;99.90
29939;DHT22;16799;50.844;5.304;2023-08-06T15:20:15;13.30;99.90
29939;DHT22;16799;50.844;5.304;2023-08-06T15:22:41;13.40;99.90
29939;DHT22;16799;50.844;5.304;2023-08-06T15:25:07;13.40;99.90
29939;DHT22;16799;50.844;5.304;2023-08-06T15:27:32;13.40;99.90
29939;DHT22;16799;50.844;5.304;2023-08-06T15:29:59;13.40;99.90
29939;DHT22;16799;50.844;5.304;2023-08-06T15:32:25;13.40;99.90
29939;DHT22;16799;50.844;5.304;2023-08-06T15:34:51;13.40;99.90